Time;durP1;ratioP1;P1;durP2;ratioP2;P2;SDS_P1;SDS_P2;PMS_P1;PMS_P2;Temp;Humidity;BMP_temperature;BMP_pressure;BME280_temperature;BME280_humidity;BME280_pressure;Samples;Min_cycle;Max_cycle;Signal;HPM_P1;HPM_P2
2023/05/23 00:01:41;;;;;;;18.77;17.27;;;16.80;99.90;;;;;;4948632;28;20466;-71
2023/05/23 00:04:15;;;;;;;17.87;16.50;;;16.80;99.90;;;;;;4948053;28;21014;-71
2023/05/23 00:06:46;;;;;;;17.60;16.20;;;16.80;99.90;;;;;;4950404;28;20486;-71
2023/05/23 00:09:14;;;;;;;18.27;16.83;;;16.80;99.90;;;;;;4955415;28;20486;-71
2023/05/23 00:11:44;;;;;;;18.27;16.97;;;16.80;99.90;;;;;;4958117;28;20561;-71
2023/05/23 00:14:13;;;;;;;19.23;17.90;;;16.70;99.90;;;;;;4958171;28;20569;-71
2023/05/23 00:16:43;;;;;;;18.20;16.90;;;16.80;99.90;;;;;;4957466;28;20557;-71
2023/05/23 00:19:13;;;;;;;20.67;19.10;;;16.70;99.90;;;;;;4953979;28;20477;-71
2023/05/23 00:21:42;;;;;;;18.80;17.40;;;16.70;99.90;;;;;;4957031;28;20474;-71
2023/05/23 00:24:12;;;;;;;20.30;18.73;;;16.70;99.90;;;;;;4955541;28;21086;-71
2023/05/23 00:26:40;;;;;;;20.03;18.63;;;16.60;99.90;;;;;;4957390;28;21146;-71
2023/05/23 00:29:14;;;;;;;17.93;16.63;;;16.60;99.90;;;;;;4952330;28;20613;-71
2023/05/23 00:31:45;;;;;;;19.90;18.30;;;16.60;99.90;;;;;;4960583;28;20475;-71
2023/05/23 00:34:13;;;;;;;20.53;18.93;;;16.60;99.90;;;;;;4953616;28;20499;-71
2023/05/23 00:36:42;;;;;;;22.10;20.30;;;16.60;99.90;;;;;;4957601;28;20496;-71
2023/05/23 00:39:17;;;;;;;22.67;20.77;;;16.60;99.90;;;;;;4953209;28;20469;-71
2023/05/23 00:41:47;;;;;;;24.67;22.67;;;16.60;99.90;;;;;;4950109;28;20553;-71
2023/05/23 00:44:19;;;;;;;23.37;21.37;;;16.60;99.90;;;;;;4950423;28;21099;-71
2023/05/23 00:46:52;;;;;;;23.37;21.40;;;16.60;99.90;;;;;;4954569;28;20942;-71
2023/05/23 00:49:21;;;;;;;25.60;23.47;;;16.60;99.90;;;;;;4953857;28;20497;-71
2023/05/23 00:51:49;;;;;;;24.80;22.83;;;16.60;99.90;;;;;;4958340;28;20479;-71
2023/05/23 00:54:24;;;;;;;24.33;22.43;;;16.60;99.90;;;;;;4953230;28;20609;-71
2023/05/23 00:56:53;;;;;;;26.13;24.00;;;16.50;99.90;;;;;;4953257;28;20521;-71
2023/05/23 00:59:23;;;;;;;26.27;24.27;;;16.50;99.90;;;;;;4953616;28;20551;-71
2023/05/23 01:01:51;;;;;;;28.93;26.37;;;16.50;99.90;;;;;;4946979;28;20484;-71
2023/05/23 01:04:20;;;;;;;24.37;22.37;;;16.50;99.90;;;;;;4944204;28;20534;-71
2023/05/23 01:06:48;;;;;;;26.63;24.33;;;16.50;99.90;;;;;;4948327;28;20486;-71
2023/05/23 01:09:17;;;;;;;26.50;24.20;;;16.50;99.90;;;;;;4950283;28;20502;-71
2023/05/23 01:11:57;;;;;;;26.40;24.20;;;16.50;99.90;;;;;;4955563;28;20480;-71
2023/05/23 01:14:35;;;;;;;27.50;25.20;;;16.50;99.90;;;;;;4958093;28;20494;-71
2023/05/23 01:17:11;;;;;;;26.13;23.83;;;16.50;99.90;;;;;;4949455;28;20492;-71
2023/05/23 01:19:54;;;;;;;25.43;23.23;;;16.50;99.90;;;;;;4948543;28;20474;-71
2023/05/23 01:22:38;;;;;;;25.50;23.30;;;16.50;99.90;;;;;;4954326;28;20552;-71
2023/05/23 01:25:15;;;;;;;27.70;25.50;;;16.50;99.90;;;;;;4955741;28;20490;-71
2023/05/23 01:27:51;;;;;;;27.20;24.90;;;16.40;99.90;;;;;;4955537;28;20948;-72
2023/05/23 01:30:21;;;;;;;26.37;24.03;;;16.40;99.90;;;;;;4956687;28;20494;-71
2023/05/23 01:32:53;;;;;;;27.87;25.40;;;16.40;99.90;;;;;;4955563;28;21075;-71
2023/05/23 01:35:26;;;;;;;26.77;24.60;;;16.40;99.90;;;;;;4952576;28;20532;-71
2023/05/23 01:37:54;;;;;;;27.33;24.83;;;16.40;99.90;;;;;;4957593;28;20475;-70
2023/05/23 01:40:24;;;;;;;27.10;24.77;;;16.40;99.90;;;;;;4958836;28;20475;-70
2023/05/23 01:42:56;;;;;;;25.50;23.43;;;16.40;99.90;;;;;;4948516;28;20553;-70
2023/05/23 01:45:26;;;;;;;27.70;25.50;;;16.40;99.90;;;;;;4954387;28;20497;-70
2023/05/23 01:47:55;;;;;;;28.30;25.90;;;16.40;99.90;;;;;;4949137;28;20585;-71
2023/05/23 01:50:25;;;;;;;28.47;25.97;;;16.50;99.90;;;;;;4955787;28;20499;-71
2023/05/23 01:52:54;;;;;;;24.47;22.47;;;16.50;99.90;;;;;;4952399;28;20592;-71
2023/05/23 01:55:23;;;;;;;26.73;24.40;;;16.50;99.90;;;;;;4947113;28;20490;-71
2023/05/23 01:57:54;;;;;;;26.60;24.20;;;16.50;99.90;;;;;;4951532;28;20497;-70
2023/05/23 02:00:23;;;;;;;25.43;23.27;;;16.50;99.90;;;;;;4952918;28;21008;-71
2023/05/23 02:02:51;;;;;;;24.90;22.90;;;16.50;99.90;;;;;;4952166;28;20582;-70
2023/05/23 02:05:19;;;;;;;25.40;23.07;;;16.60;99.90;;;;;;4951033;28;20501;-71
2023/05/23 02:07:47;;;;;;;27.50;25.20;;;16.60;99.90;;;;;;4953336;28;20478;-71
2023/05/23 02:10:15;;;;;;;27.93;25.73;;;16.60;99.90;;;;;;4954823;28;20868;-71
2023/05/23 02:12:43;;;;;;;32.43;29.83;;;16.50;99.90;;;;;;4949290;28;20594;-71
2023/05/23 02:15:12;;;;;;;35.50;32.60;;;16.50;99.90;;;;;;4948015;28;20498;-71
2023/05/23 02:17:41;;;;;;;36.03;33.10;;;16.40;99.90;;;;;;4957383;28;20564;-71
2023/05/23 02:20:10;;;;;;;36.20;33.00;;;16.30;99.90;;;;;;4957296;28;20474;-71
2023/05/23 02:22:39;;;;;;;35.43;32.50;;;16.30;99.90;;;;;;4960570;28;20558;-71
2023/05/23 02:25:08;;;;;;;39.03;35.73;;;16.20;99.90;;;;;;4952630;28;20490;-70
2023/05/23 02:27:36;;;;;;;38.77;35.40;;;16.20;99.90;;;;;;4956758;28;21213;-71
2023/05/23 02:30:04;;;;;;;41.73;38.17;;;16.10;99.90;;;;;;4954474;28;20504;-71
2023/05/23 02:32:33;;;;;;;41.47;37.80;;;16.00;99.90;;;;;;4957591;28;20501;-71
2023/05/23 02:35:01;;;;;;;44.67;40.63;;;16.00;99.90;;;;;;4956252;28;20513;-71
2023/05/23 02:37:29;;;;;;;44.83;40.67;;;15.90;99.90;;;;;;4958479;28;20528;-71
2023/05/23 02:39:57;;;;;;;46.17;41.50;;;15.90;99.90;;;;;;4953130;28;20470;-71
2023/05/23 02:42:25;;;;;;;46.77;42.33;;;15.80;99.90;;;;;;4957933;28;20509;-71
2023/05/23 02:44:53;;;;;;;47.60;42.90;;;15.80;99.90;;;;;;4956821;28;20478;-70
2023/05/23 02:47:21;;;;;;;47.50;42.80;;;15.70;99.90;;;;;;4955089;28;20470;-71
2023/05/23 02:49:51;;;;;;;47.43;42.70;;;15.70;99.90;;;;;;4955177;28;20498;-71
2023/05/23 02:52:19;;;;;;;47.37;42.67;;;15.70;99.90;;;;;;4957483;28;20549;-71
2023/05/23 02:54:47;;;;;;;48.37;43.17;;;15.60;99.90;;;;;;4956903;28;20557;-71
2023/05/23 02:57:15;;;;;;;47.73;42.63;;;15.60;99.90;;;;;;4959493;28;20873;-71
2023/05/23 02:59:43;;;;;;;48.60;43.57;;;15.50;99.90;;;;;;4956200;28;20473;-71
2023/05/23 03:02:11;;;;;;;47.03;42.13;;;15.50;99.90;;;;;;4949707;28;20478;-71
2023/05/23 03:04:40;;;;;;;45.83;41.10;;;15.40;99.90;;;;;;4951024;28;20573;-70
2023/05/23 03:07:10;;;;;;;47.37;42.43;;;15.50;99.90;;;;;;4952814;28;20544;-70
2023/05/23 03:09:51;;;;;;;45.73;40.67;;;15.40;99.90;;;;;;4954416;28;20473;-70
2023/05/23 03:12:19;;;;;;;43.47;38.90;;;15.40;99.90;;;;;;4959845;28;20674;-70
2023/05/23 03:14:47;;;;;;;44.47;39.70;;;15.40;99.90;;;;;;4953516;28;21665;-70
2023/05/23 03:17:15;;;;;;;44.50;39.67;;;15.40;99.90;;;;;;4962315;28;20509;-70
2023/05/23 03:19:43;;;;;;;46.43;41.63;;;15.30;99.90;;;;;;4958035;28;20478;-70
2023/05/23 03:22:15;;;;;;;44.03;39.53;;;15.30;99.90;;;;;;4960037;28;21058;-70
2023/05/23 03:24:43;;;;;;;43.17;37.70;;;15.30;99.90;;;;;;4958481;28;20559;-70
2023/05/23 03:27:11;;;;;;;43.67;39.00;;;15.30;99.90;;;;;;4958074;28;20544;-70
2023/05/23 03:29:39;;;;;;;42.77;38.17;;;15.30;99.90;;;;;;4955635;28;20558;-70
2023/05/23 03:32:08;;;;;;;44.37;38.20;;;15.30;99.90;;;;;;4956934;28;20534;-70
2023/05/23 03:34:37;;;;;;;40.90;36.60;;;15.30;99.90;;;;;;4957352;28;20494;-70
2023/05/23 03:37:05;;;;;;;42.50;38.17;;;15.30;99.90;;;;;;4958039;28;20486;-70
2023/05/23 03:39:35;;;;;;;40.33;36.13;;;15.30;99.90;;;;;;4957057;28;21027;-70
2023/05/23 03:42:06;;;;;;;41.30;36.90;;;15.20;99.90;;;;;;4947733;28;20483;-70
2023/05/23 03:44:34;;;;;;;40.93;36.03;;;15.20;99.90;;;;;;4947099;28;21090;-70
2023/05/23 03:47:02;;;;;;;42.67;36.30;;;15.20;99.90;;;;;;4950259;28;20922;-70
2023/05/23 03:49:30;;;;;;;38.73;33.17;;;15.20;99.90;;;;;;4953495;28;20552;-71
2023/05/23 03:51:58;;;;;;;36.67;32.90;;;15.10;99.90;;;;;;4958723;28;20497;-71
2023/05/23 03:54:26;;;;;;;38.27;34.27;;;15.10;99.90;;;;;;4957213;28;21106;-71
2023/05/23 03:56:56;;;;;;;38.23;32.87;;;15.10;99.90;;;;;;4956541;28;20493;-71
2023/05/23 03:59:24;;;;;;;35.90;32.10;;;15.10;99.90;;;;;;4952789;28;20601;-71
2023/05/23 04:01:52;;;;;;;35.43;31.80;;;15.10;99.90;;;;;;4951794;28;20466;-70
2023/05/23 04:04:20;;;;;;;34.53;31.10;;;15.10;99.90;;;;;;4952420;28;20526;-71
2023/05/23 04:06:48;;;;;;;35.17;31.47;;;15.10;99.90;;;;;;4956035;28;20871;-71
2023/05/23 04:09:17;;;;;;;35.27;31.50;;;15.00;99.90;;;;;;4955766;28;20521;-71
2023/05/23 04:11:46;;;;;;;41.27;33.27;;;15.00;99.90;;;;;;4957678;28;20536;-70
2023/05/23 04:14:16;;;;;;;37.07;32.93;;;15.00;99.90;;;;;;4953282;28;20498;-71
2023/05/23 04:16:44;;;;;;;39.80;34.50;;;14.90;99.90;;;;;;4951474;28;20943;-72
2023/05/23 04:19:12;;;;;;;38.83;34.50;;;14.90;99.90;;;;;;4951614;28;20488;-70
2023/05/23 04:21:40;;;;;;;38.60;34.50;;;14.80;99.90;;;;;;4955206;28;20479;-70
2023/05/23 04:24:08;;;;;;;38.90;34.70;;;14.80;99.90;;;;;;4955387;28;20528;-70
2023/05/23 04:26:36;;;;;;;37.43;33.27;;;14.80;99.90;;;;;;4954078;28;20497;-70
2023/05/23 04:29:04;;;;;;;36.97;33.17;;;14.80;99.90;;;;;;4956702;28;20975;-71
2023/05/23 04:31:34;;;;;;;37.90;33.03;;;14.80;99.90;;;;;;4948510;28;21579;-71
2023/05/23 04:34:02;;;;;;;38.50;34.47;;;14.80;99.90;;;;;;4951204;28;20871;-71
2023/05/23 04:36:30;;;;;;;37.00;32.63;;;14.80;99.90;;;;;;4948643;28;20521;-71
2023/05/23 04:38:58;;;;;;;39.17;34.37;;;14.80;99.90;;;;;;4950099;28;20582;-71
2023/05/23 04:41:26;;;;;;;37.23;31.97;;;14.80;99.90;;;;;;4949765;28;20581;-71
2023/05/23 04:43:57;;;;;;;37.77;33.07;;;14.80;99.90;;;;;;4950452;28;21605;-70
2023/05/23 04:46:25;;;;;;;35.80;30.77;;;14.80;99.90;;;;;;4948924;28;20584;-72
2023/05/23 04:48:55;;;;;;;42.67;33.40;;;14.80;99.90;;;;;;4947987;28;21018;-72
2023/05/23 04:51:23;;;;;;;39.27;32.40;;;14.80;99.90;;;;;;4941420;28;20499;-72
2023/05/23 04:53:52;;;;;;;38.83;32.43;;;14.80;99.90;;;;;;4923902;28;20508;-72
2023/05/23 04:56:21;;;;;;;40.60;31.50;;;14.80;99.90;;;;;;4948360;28;20494;-72
2023/05/23 04:58:49;;;;;;;39.10;31.70;;;14.80;99.90;;;;;;4949013;28;20478;-66
2023/05/23 05:01:17;;;;;;;38.90;33.00;;;14.80;99.90;;;;;;4948598;28;20558;-68
2023/05/23 05:03:46;;;;;;;38.10;32.20;;;14.80;99.90;;;;;;4939886;28;21417;-68
2023/05/23 05:06:16;;;;;;;40.73;35.03;;;14.80;99.90;;;;;;4952120;28;20481;-68
2023/05/23 05:08:44;;;;;;;47.60;35.77;;;14.70;99.90;;;;;;4955370;28;20915;-68
2023/05/23 05:11:12;;;;;;;39.63;33.67;;;14.70;99.90;;;;;;4951603;28;20961;-67
2023/05/23 05:13:40;;;;;;;45.97;35.70;;;14.70;99.90;;;;;;4946025;28;20509;-67
2023/05/23 05:16:08;;;;;;;41.20;35.13;;;14.70;99.90;;;;;;4927005;28;20501;-71
2023/05/23 05:18:36;;;;;;;44.73;35.40;;;14.70;99.90;;;;;;4919218;28;20493;-72
2023/05/23 05:21:05;;;;;;;46.27;35.93;;;14.60;99.90;;;;;;4935945;28;20502;-70
2023/05/23 05:23:35;;;;;;;47.53;35.93;;;14.60;99.90;;;;;;4932436;28;20880;-69
2023/05/23 05:26:04;;;;;;;42.27;34.17;;;14.60;99.90;;;;;;4938014;28;20490;-71
2023/05/23 05:28:32;;;;;;;45.00;35.50;;;14.60;99.90;;;;;;4946252;28;20877;-70
2023/05/23 05:31:03;;;;;;;43.27;35.63;;;14.60;99.90;;;;;;4939662;28;20470;-70
2023/05/23 05:33:34;;;;;;;44.03;34.87;;;14.70;99.90;;;;;;4947415;28;20490;-70
2023/05/23 05:36:03;;;;;;;39.43;33.17;;;14.70;99.90;;;;;;4935991;28;20498;-72
2023/05/23 05:38:31;;;;;;;43.77;35.20;;;14.70;99.90;;;;;;4945097;28;20527;-70
2023/05/23 05:41:00;;;;;;;43.77;34.47;;;14.70;99.90;;;;;;4938633;28;20484;-71
2023/05/23 05:43:28;;;;;;;43.73;35.73;;;14.70;99.90;;;;;;4947842;28;20517;-69
2023/05/23 05:45:56;;;;;;;44.93;36.93;;;14.70;99.90;;;;;;4949674;28;20490;-70
2023/05/23 05:48:24;;;;;;;49.40;36.87;;;14.70;99.90;;;;;;4951823;28;20475;-69
2023/05/23 05:50:52;;;;;;;42.60;35.03;;;14.70;99.90;;;;;;4953568;28;20474;-70
2023/05/23 05:53:20;;;;;;;48.10;37.53;;;14.70;99.90;;;;;;4953099;28;20578;-70
2023/05/23 05:55:48;;;;;;;48.00;36.97;;;14.70;99.90;;;;;;4947135;28;20537;-70
2023/05/23 05:58:17;;;;;;;48.83;37.43;;;14.70;99.90;;;;;;4943647;28;20556;-69
2023/05/23 06:00:46;;;;;;;49.80;41.10;;;14.60;99.90;;;;;;4956869;28;20475;-69
2023/05/23 06:03:14;;;;;;;51.17;40.03;;;14.60;99.90;;;;;;4949146;28;20499;-69
2023/05/23 06:05:42;;;;;;;48.50;38.47;;;14.50;99.90;;;;;;4953612;28;20545;-69
2023/05/23 06:08:10;;;;;;;52.23;39.17;;;14.50;99.90;;;;;;4948172;28;20906;-70
2023/05/23 06:10:39;;;;;;;57.60;39.73;;;14.60;99.90;;;;;;4955656;28;20477;-70
2023/05/23 06:13:07;;;;;;;54.03;41.20;;;14.60;99.90;;;;;;4952000;28;20497;-70
2023/05/23 06:15:36;;;;;;;51.37;38.37;;;14.60;99.90;;;;;;4951809;28;20938;-70
2023/05/23 06:18:04;;;;;;;51.13;38.63;;;14.70;99.90;;;;;;4948436;28;20502;-70
2023/05/23 06:20:32;;;;;;;47.60;37.77;;;14.70;99.90;;;;;;4954050;28;20470;-70
2023/05/23 06:23:04;;;;;;;47.20;37.30;;;14.80;99.90;;;;;;4940065;28;20873;-70
2023/05/23 06:25:32;;;;;;;45.83;36.73;;;14.80;99.90;;;;;;4949221;28;20495;-70
2023/05/23 06:28:00;;;;;;;43.53;34.57;;;14.80;99.90;;;;;;4948752;28;20490;-70
2023/05/23 06:30:29;;;;;;;43.60;34.10;;;14.80;99.90;;;;;;4954365;28;21532;-70
2023/05/23 06:32:58;;;;;;;43.60;33.50;;;14.80;99.90;;;;;;4939002;28;20505;-70
2023/05/23 06:35:26;;;;;;;43.17;34.10;;;14.90;99.90;;;;;;4954173;28;20557;-70
2023/05/23 06:37:54;;;;;;;46.07;36.30;;;14.80;99.90;;;;;;4951337;28;20561;-70
2023/05/23 06:40:22;;;;;;;49.50;35.87;;;14.80;99.90;;;;;;4955508;28;20561;-70
2023/05/23 06:42:50;;;;;;;47.13;36.83;;;14.70;99.90;;;;;;4951828;28;20578;-70
2023/05/23 06:45:18;;;;;;;47.80;35.13;;;14.70;99.90;;;;;;4944966;28;20576;-72
2023/05/23 06:47:47;;;;;;;43.60;33.80;;;14.70;99.90;;;;;;4952205;28;20498;-70
2023/05/23 06:50:18;;;;;;;41.03;32.10;;;14.70;99.90;;;;;;4953254;28;20470;-70
2023/05/23 06:52:46;;;;;;;40.23;32.10;;;14.70;99.90;;;;;;4956596;28;20498;-70
2023/05/23 06:55:17;;;;;;;37.93;31.70;;;14.70;99.90;;;;;;4944091;28;20492;-71
2023/05/23 06:57:46;;;;;;;34.87;29.67;;;14.70;99.90;;;;;;4932734;28;20475;-72
2023/05/23 07:00:14;;;;;;;31.47;27.80;;;14.70;99.90;;;;;;4949915;28;20471;-72
2023/05/23 07:02:44;;;;;;;29.60;26.40;;;14.80;99.90;;;;;;4953287;28;20850;-72
2023/05/23 07:05:12;;;;;;;29.50;26.40;;;14.80;99.90;;;;;;4956161;28;20486;-71
2023/05/23 07:07:42;;;;;;;26.23;23.63;;;14.80;99.90;;;;;;4946674;28;20944;-72
2023/05/23 07:10:10;;;;;;;24.23;22.00;;;14.80;99.90;;;;;;4951571;28;20480;-72
2023/05/23 07:12:38;;;;;;;23.13;21.03;;;14.80;99.90;;;;;;4949361;28;21078;-72
2023/05/23 07:15:08;;;;;;;23.40;21.20;;;14.80;99.90;;;;;;4952898;28;20517;-72
2023/05/23 07:17:36;;;;;;;21.50;19.60;;;14.80;99.90;;;;;;4951022;28;20487;-72
2023/05/23 07:20:04;;;;;;;22.10;20.10;;;14.80;99.90;;;;;;4959949;28;21097;-72
2023/05/23 07:22:32;;;;;;;21.50;19.60;;;14.80;99.90;;;;;;4954396;28;20466;-72
2023/05/23 07:25:02;;;;;;;19.30;17.57;;;14.80;99.90;;;;;;4938511;28;20500;-72
2023/05/23 07:27:29;;;;;;;19.27;17.57;;;14.80;99.90;;;;;;4949986;28;20484;-72
2023/05/23 07:30:00;;;;;;;19.30;17.60;;;14.80;99.90;;;;;;4948271;28;20474;-72
2023/05/23 07:32:28;;;;;;;18.27;16.67;;;14.80;99.90;;;;;;4949921;28;20557;-72
2023/05/23 07:34:56;;;;;;;17.20;15.70;;;14.70;99.90;;;;;;4945195;28;20921;-72
2023/05/23 07:37:26;;;;;;;15.00;13.70;;;14.80;99.90;;;;;;4947586;28;21174;-72
2023/05/23 07:39:54;;;;;;;15.67;14.37;;;14.80;99.90;;;;;;4952834;28;20474;-72
2023/05/23 07:42:23;;;;;;;15.00;13.80;;;14.70;99.90;;;;;;4960915;28;20574;-72
2023/05/23 07:44:51;;;;;;;14.43;13.20;;;14.80;99.90;;;;;;4928292;28;20500;-72
2023/05/23 07:47:19;;;;;;;12.93;11.83;;;14.80;99.90;;;;;;4947408;28;20470;-72
2023/05/23 07:49:47;;;;;;;13.03;12.03;;;14.90;99.90;;;;;;4940584;28;20479;-72
2023/05/23 07:52:15;;;;;;;13.40;12.17;;;15.00;99.90;;;;;;4942962;28;20502;-72
2023/05/23 07:54:43;;;;;;;12.00;11.10;;;15.00;99.90;;;;;;4938785;28;20545;-72
2023/05/23 07:57:14;;;;;;;13.57;12.37;;;15.10;99.90;;;;;;4930098;28;20506;-72
2023/05/23 07:59:43;;;;;;;12.43;11.43;;;15.20;99.90;;;;;;4952087;28;20565;-72
2023/05/23 08:02:11;;;;;;;13.50;12.20;;;15.30;99.90;;;;;;4952802;28;20478;-72
2023/05/23 08:04:40;;;;;;;11.80;10.60;;;15.20;99.90;;;;;;4949536;28;20542;-71
2023/05/23 08:07:08;;;;;;;11.00;10.00;;;15.30;99.90;;;;;;4950360;28;20496;-71
2023/05/23 08:09:36;;;;;;;11.03;10.03;;;15.20;99.90;;;;;;4951365;28;21371;-72
2023/05/23 08:12:05;;;;;;;11.03;10.13;;;15.20;99.90;;;;;;4946111;28;20509;-72
2023/05/23 08:14:33;;;;;;;11.03;10.07;;;15.20;99.90;;;;;;4952910;28;21269;-72
2023/05/23 08:17:18;;;;;;;11.43;10.33;;;15.10;99.90;;;;;;4951012;28;20578;-72
2023/05/23 08:19:46;;;;;;;11.23;9.80;;;15.10;99.90;;;;;;4946007;28;20861;-72
2023/05/23 08:22:14;;;;;;;10.47;9.57;;;15.10;99.90;;;;;;4952002;28;20479;-72
2023/05/23 08:24:42;;;;;;;10.00;9.13;;;15.10;99.90;;;;;;4952077;28;20574;-72
2023/05/23 08:27:10;;;;;;;9.20;8.40;;;15.10;99.90;;;;;;4939859;28;20510;-72
2023/05/23 08:29:38;;;;;;;8.50;7.80;;;15.00;99.90;;;;;;4950021;28;20478;-72
2023/05/23 08:32:06;;;;;;;7.80;7.07;;;15.10;99.90;;;;;;4951780;28;20552;-72
2023/05/23 08:34:36;;;;;;;6.93;6.17;;;15.00;99.90;;;;;;4950138;28;20495;-72
2023/05/23 08:37:04;;;;;;;7.77;7.07;;;15.00;99.90;;;;;;4950506;28;20582;-72
2023/05/23 08:39:32;;;;;;;7.33;6.83;;;15.10;99.90;;;;;;4952392;28;20481;-72
2023/05/23 08:42:00;;;;;;;6.73;6.13;;;15.10;99.90;;;;;;4953588;28;20566;-72
2023/05/23 08:44:28;;;;;;;7.23;6.63;;;15.00;99.90;;;;;;4947593;28;20522;-72
2023/05/23 08:47:01;;;;;;;8.30;6.87;;;14.90;99.90;;;;;;4951114;28;20491;-71
2023/05/23 08:49:29;;;;;;;8.73;8.03;;;14.80;99.90;;;;;;4953969;28;20572;-71
2023/05/23 08:52:02;;;;;;;9.93;9.10;;;14.70;99.90;;;;;;4941567;28;20557;-72
2023/05/23 08:54:31;;;;;;;9.10;8.27;;;14.60;99.90;;;;;;4948879;28;20588;-71
2023/05/23 08:56:59;;;;;;;9.50;8.70;;;14.60;99.90;;;;;;4952574;28;20574;-71
2023/05/23 08:59:27;;;;;;;9.23;8.53;;;14.60;99.90;;;;;;4951637;28;20570;-72
2023/05/23 09:01:56;;;;;;;10.00;9.20;;;14.50;99.90;;;;;;4951971;28;20942;-71
2023/05/23 09:04:24;;;;;;;10.37;9.20;;;14.50;99.90;;;;;;4937411;28;26336;-72
2023/05/23 09:06:55;;;;;;;10.50;9.70;;;14.50;99.90;;;;;;4928633;28;20482;-72
2023/05/23 09:09:25;;;;;;;10.03;9.17;;;14.50;99.90;;;;;;4943397;28;20513;-72
2023/05/23 09:11:55;;;;;;;9.90;9.13;;;14.40;99.90;;;;;;4948682;28;21087;-72
2023/05/23 09:14:23;;;;;;;9.10;8.40;;;14.40;99.90;;;;;;4953226;28;20589;-72
2023/05/23 09:16:51;;;;;;;13.47;12.13;;;14.40;99.90;;;;;;4942807;28;20495;-72
2023/05/23 09:19:19;;;;;;;13.13;11.80;;;14.40;99.90;;;;;;4933430;28;23450;-73
2023/05/23 09:21:48;;;;;;;12.87;11.60;;;14.30;99.90;;;;;;4924486;28;20586;-71
2023/05/23 09:24:16;;;;;;;12.00;10.90;;;14.30;99.90;;;;;;4933969;28;20486;-73
2023/05/23 09:26:48;;;;;;;11.30;10.30;;;14.30;99.90;;;;;;4937003;28;20513;-73
2023/05/23 09:29:20;;;;;;;11.70;10.60;;;14.20;99.90;;;;;;4952443;28;20492;-72
2023/05/23 09:31:48;;;;;;;11.90;10.70;;;14.10;99.90;;;;;;4956094;28;20485;-72
2023/05/23 09:34:16;;;;;;;10.33;9.43;;;14.00;99.90;;;;;;4951352;28;20498;-71
2023/05/23 09:36:47;;;;;;;10.87;9.27;;;13.90;99.90;;;;;;4946795;28;20498;-71
2023/05/23 09:39:15;;;;;;;9.10;8.20;;;13.80;99.90;;;;;;4951079;28;20503;-72
2023/05/23 09:41:43;;;;;;;9.10;8.20;;;13.80;99.90;;;;;;4954238;28;20478;-72
2023/05/23 09:44:12;;;;;;;8.70;7.90;;;13.80;99.90;;;;;;4945874;28;20493;-72
2023/05/23 09:46:40;;;;;;;8.17;7.47;;;13.70;99.90;;;;;;4951436;28;20500;-72
2023/05/23 09:49:18;;;;;;;9.07;7.57;;;13.70;99.90;;;;;;4954274;28;20477;-72
2023/05/23 09:51:57;;;;;;;7.40;6.70;;;13.60;99.90;;;;;;4949579;28;20570;-71
2023/05/23 09:54:26;;;;;;;7.27;6.57;;;13.60;99.90;;;;;;4949211;28;20497;-71
2023/05/23 09:56:55;;;;;;;6.97;6.27;;;13.60;99.90;;;;;;4950876;28;20581;-73
2023/05/23 09:59:28;;;;;;;6.20;5.00;;;13.50;99.90;;;;;;4942619;28;20475;-72
2023/05/23 10:01:58;;;;;;;6.73;5.63;;;13.50;99.90;;;;;;4946525;28;20569;-72
2023/05/23 10:04:31;;;;;;;5.70;5.20;;;13.50;99.90;;;;;;4946162;28;20984;-72
2023/05/23 10:07:05;;;;;;;7.97;5.93;;;13.50;99.90;;;;;;4950964;28;20492;-73
2023/05/23 10:09:37;;;;;;;6.43;5.60;;;13.60;99.90;;;;;;4953473;28;20596;-72
2023/05/23 10:12:45;;;;;;;6.00;4.87;;;13.60;99.90;;;;;;4951039;28;21049;-71
2023/05/23 10:15:16;;;;;;;6.70;5.27;;;13.50;99.90;;;;;;4952890;28;20625;-71
2023/05/23 10:17:58;;;;;;;5.13;4.63;;;13.50;99.90;;;;;;4947257;28;20479;-72
2023/05/23 10:20:30;;;;;;;6.30;5.53;;;13.50;99.90;;;;;;4945260;28;20474;-71
2023/05/23 10:23:00;;;;;;;7.90;5.20;;;13.50;99.90;;;;;;4926802;28;20487;-71
2023/05/23 10:25:29;;;;;;;5.57;4.80;;;13.50;99.90;;;;;;4935680;28;20576;-71
2023/05/23 10:27:58;;;;;;;5.83;4.40;;;13.50;99.90;;;;;;4944780;28;20556;-71
2023/05/23 10:30:31;;;;;;;5.07;4.23;;;13.50;99.90;;;;;;4953544;28;20473;-71
2023/05/23 10:33:01;;;;;;;4.60;4.20;;;13.50;99.90;;;;;;4949818;28;20505;-72
2023/05/23 10:35:45;;;;;;;8.17;4.03;;;13.60;99.90;;;;;;4953321;28;20498;-71
2023/05/23 10:38:28;;;;;;;5.63;4.20;;;13.60;99.90;;;;;;4953341;28;20906;-71
2023/05/23 10:41:04;;;;;;;4.40;4.00;;;13.60;99.90;;;;;;4950486;28;20971;-71
2023/05/23 10:43:40;;;;;;;6.10;3.43;;;13.50;99.90;;;;;;4948780;28;20585;-71
2023/05/23 10:46:12;;;;;;;6.03;3.63;;;13.60;99.90;;;;;;4956286;28;20501;-74
2023/05/23 10:48:42;;;;;;;9.40;3.63;;;13.60;99.90;;;;;;4956681;28;20461;-74
2023/05/23 10:51:13;;;;;;;4.43;3.23;;;13.60;99.90;;;;;;4950162;28;20501;-72
2023/05/23 10:53:42;;;;;;;5.03;3.83;;;13.50;99.90;;;;;;4955232;28;20510;-71
2023/05/23 10:56:19;;;;;;;8.73;4.13;;;13.50;99.90;;;;;;4958737;28;21110;-71
2023/05/23 10:58:51;;;;;;;6.80;4.13;;;13.50;99.90;;;;;;4955288;28;21078;-71
2023/05/23 11:01:21;;;;;;;8.33;3.80;;;13.50;99.90;;;;;;4944537;28;20490;-74
2023/05/23 11:03:51;;;;;;;5.53;3.63;;;13.50;99.90;;;;;;4929418;28;20552;-73
2023/05/23 11:06:31;;;;;;;8.20;4.20;;;13.60;99.90;;;;;;4956013;28;20516;-71
2023/05/23 11:09:04;;;;;;;7.40;4.13;;;13.60;99.90;;;;;;4947956;28;20470;-71
2023/05/23 11:12:01;;;;;;;6.03;3.80;;;13.50;99.90;;;;;;4957625;28;20470;-71
2023/05/23 11:14:33;;;;;;;4.90;3.43;;;13.60;99.90;;;;;;4953759;28;21076;-73
2023/05/23 11:17:16;;;;;;;9.30;4.93;;;13.70;99.90;;;;;;4942214;28;22418;-73
2023/05/23 11:19:58;;;;;;;7.73;4.20;;;13.80;99.90;;;;;;4946403;28;20486;-73
2023/05/23 11:22:29;;;;;;;8.77;3.90;;;14.00;99.90;;;;;;4941317;28;20478;-71
2023/05/23 11:24:57;;;;;;;8.87;4.30;;;14.00;99.90;;;;;;4945056;28;20513;-71
2023/05/23 11:27:31;;;;;;;7.97;3.70;;;14.10;99.90;;;;;;4944227;28;20475;-71
2023/05/23 11:30:01;;;;;;;5.93;4.13;;;14.20;99.90;;;;;;4941625;28;20493;-72
2023/05/23 11:32:31;;;;;;;5.50;3.13;;;14.30;99.90;;;;;;4938954;28;20474;-73
2023/05/23 11:35:00;;;;;;;6.30;3.30;;;14.50;99.90;;;;;;4946318;28;20540;-73
2023/05/23 11:37:29;;;;;;;8.70;4.10;;;14.70;99.90;;;;;;4947337;28;20999;-71
2023/05/23 11:39:57;;;;;;;6.77;3.33;;;14.90;99.90;;;;;;4949569;28;20574;-71
2023/05/23 11:42:25;;;;;;;7.00;3.33;;;15.10;99.90;;;;;;4943165;28;20497;-72
2023/05/23 11:44:53;;;;;;;6.10;3.63;;;15.20;99.90;;;;;;4948767;28;20572;-72
2023/05/23 11:47:21;;;;;;;5.73;3.93;;;15.10;99.90;;;;;;4947623;28;20568;-71
2023/05/23 11:49:51;;;;;;;6.60;4.43;;;15.10;99.90;;;;;;4949430;28;20501;-73
2023/05/23 11:52:19;;;;;;;6.40;3.83;;;15.00;99.90;;;;;;4956688;28;20569;-71
2023/05/23 11:54:47;;;;;;;8.30;3.73;;;15.00;99.90;;;;;;4945197;28;21217;-72
2023/05/23 11:57:15;;;;;;;5.50;3.60;;;15.00;99.90;;;;;;4946535;28;20502;-71
2023/05/23 11:59:44;;;;;;;10.57;4.93;;;15.00;99.90;;;;;;4946282;28;20485;-71
2023/05/23 12:02:12;;;;;;;7.50;3.90;;;15.00;99.90;;;;;;4952816;28;20582;-71
2023/05/23 12:04:40;;;;;;;6.33;4.50;;;15.10;99.90;;;;;;4948723;28;21029;-70
2023/05/23 12:07:10;;;;;;;11.20;4.70;;;15.10;99.90;;;;;;4957969;28;20478;-71
2023/05/23 12:09:43;;;;;;;7.80;4.00;;;15.30;99.90;;;;;;4957738;28;20483;-70
2023/05/23 12:12:13;;;;;;;6.77;3.83;;;15.30;99.90;;;;;;4956789;28;20477;-72
2023/05/23 12:14:43;;;;;;;5.97;4.43;;;15.40;99.90;;;;;;4956114;28;21048;-72
2023/05/23 12:17:12;;;;;;;9.90;3.87;;;15.40;99.90;;;;;;4955526;28;20485;-72
2023/05/23 12:19:45;;;;;;;14.47;4.60;;;15.50;99.90;;;;;;4954662;28;20482;-71
2023/05/23 12:22:14;;;;;;;10.30;4.40;;;15.60;99.90;;;;;;4948277;28;21336;-71
2023/05/23 12:24:46;;;;;;;5.80;3.67;;;15.70;99.90;;;;;;4945591;28;20577;-72
2023/05/23 12:27:16;;;;;;;5.83;4.00;;;15.80;99.90;;;;;;4945657;28;20565;-72
2023/05/23 12:29:51;;;;;;;8.17;3.70;;;16.00;99.90;;;;;;4953312;28;21075;-72
2023/05/23 12:32:19;;;;;;;5.63;3.70;;;16.10;99.90;;;;;;4948851;28;20482;-73
2023/05/23 12:34:49;;;;;;;6.13;4.20;;;16.20;99.90;;;;;;4949528;28;20527;-73
2023/05/23 12:37:19;;;;;;;9.07;3.90;;;16.20;99.90;;;;;;4952711;28;21031;-73
2023/05/23 12:39:47;;;;;;;4.97;3.47;;;16.10;99.90;;;;;;4942270;28;20474;-73
2023/05/23 12:42:15;;;;;;;7.93;4.10;;;16.10;99.90;;;;;;4954777;28;20573;-73
2023/05/23 12:44:44;;;;;;;6.27;3.83;;;16.20;99.90;;;;;;4944491;28;20518;-73
2023/05/23 12:47:13;;;;;;;8.47;3.90;;;16.20;99.90;;;;;;4953910;28;20470;-72